createdAt,value
2018-04-10T00:01:17.789Z,1.70
2018-04-10T00:03:45.983Z,1.98
2018-04-10T00:06:14.080Z,2.22
2018-04-10T00:08:42.283Z,1.50
2018-04-10T00:11:10.460Z,2.25
2018-04-10T00:13:38.865Z,1.52
2018-04-10T00:16:07.064Z,1.70
2018-04-10T00:18:35.261Z,2.20
2018-04-10T00:21:03.563Z,2.10
2018-04-10T00:23:31.864Z,2.10
2018-04-10T00:26:00.251Z,1.90
2018-04-10T00:28:28.446Z,2.10
2018-04-10T00:30:56.569Z,2.15
2018-04-10T00:33:24.725Z,2.00
2018-04-10T00:35:52.924Z,2.12
2018-04-10T00:38:21.116Z,1.80
2018-04-10T00:40:49.331Z,2.10
2018-04-10T00:43:17.516Z,1.90
2018-04-10T00:45:45.706Z,1.65
2018-04-10T00:48:13.796Z,1.73
2018-04-10T00:50:42.002Z,2.33
2018-04-10T00:53:10.077Z,1.85
2018-04-10T00:55:38.381Z,2.22
2018-04-10T00:58:06.682Z,2.03
2018-04-10T01:00:34.899Z,1.90
2018-04-10T01:03:03.017Z,2.05
2018-04-10T01:05:31.356Z,2.08
2018-04-10T01:07:59.768Z,2.03
2018-04-10T01:10:28.065Z,1.95
2018-04-10T01:12:56.457Z,2.12
2018-04-10T01:15:24.643Z,1.87
2018-04-10T01:17:52.736Z,2.08
2018-04-10T01:20:20.937Z,1.62
2018-04-10T01:22:49.019Z,2.30
2018-04-10T01:25:17.217Z,1.95
2018-04-10T01:27:45.318Z,2.00
2018-04-10T01:30:13.515Z,2.20
2018-04-10T01:32:41.598Z,2.03
2018-04-10T01:35:10.002Z,2.40
2018-04-10T01:37:38.197Z,2.60
2018-04-10T01:40:06.497Z,1.87
2018-04-10T01:42:34.825Z,1.90
2018-04-10T01:45:02.981Z,2.03
2018-04-10T01:47:31.277Z,2.00
2018-04-10T01:49:59.484Z,1.90
2018-04-10T01:52:27.663Z,2.20
2018-04-10T01:54:55.870Z,1.77
2018-04-10T01:57:24.149Z,2.20
2018-04-10T01:59:52.367Z,2.58
2018-04-10T02:02:20.645Z,2.53
2018-04-10T02:04:48.846Z,1.83
2018-04-10T02:07:16.925Z,2.30
2018-04-10T02:09:45.119Z,1.90
2018-04-10T02:12:13.317Z,2.30
2018-04-10T02:14:41.618Z,2.83
2018-04-10T02:17:09.822Z,2.47
2018-04-10T02:19:38.102Z,2.15
2018-04-10T02:22:06.299Z,2.60
2018-04-10T02:24:34.597Z,2.10
2018-04-10T02:27:02.648Z,1.90
2018-04-10T02:29:30.782Z,2.83
2018-04-10T02:31:58.880Z,2.30
2018-04-10T02:34:28.199Z,2.50
2018-04-10T02:36:56.405Z,2.83
2018-04-10T02:39:24.703Z,2.50
2018-04-10T02:41:52.880Z,2.15
2018-04-10T02:44:20.981Z,2.75
2018-04-10T02:46:49.180Z,2.00
2018-04-10T02:49:17.378Z,2.47
2018-04-10T02:51:45.660Z,1.90
2018-04-10T02:54:14.056Z,2.37
2018-04-10T02:56:42.359Z,2.10
2018-04-10T02:59:10.563Z,2.30
2018-04-10T03:01:38.846Z,2.70
2018-04-10T03:04:07.157Z,2.60
2018-04-10T03:06:35.277Z,2.03
2018-04-10T03:09:03.337Z,3.10
2018-04-10T03:11:31.520Z,2.00
2018-04-10T03:13:59.720Z,2.28
2018-04-10T03:16:27.916Z,2.55
2018-04-10T03:18:55.997Z,2.12
2018-04-10T03:21:24.202Z,2.20
2018-04-10T03:23:52.385Z,2.45
2018-04-10T03:26:20.591Z,2.53
2018-04-10T03:28:48.686Z,2.25
2018-04-10T03:31:16.874Z,2.10
2018-04-10T03:33:45.278Z,2.22
2018-04-10T03:36:13.510Z,2.90
2018-04-10T03:38:41.767Z,2.33
2018-04-10T03:41:10.257Z,2.55
2018-04-10T03:43:38.568Z,5.12
2018-04-10T03:46:06.958Z,3.05
2018-04-10T03:48:35.159Z,5.15
2018-04-10T03:51:03.352Z,4.22
2018-04-10T03:53:31.436Z,2.80
2018-04-10T03:55:59.738Z,2.58
2018-04-10T03:58:27.827Z,2.70
2018-04-10T04:00:56.028Z,2.50
2018-04-10T04:03:24.418Z,2.55
2018-04-10T04:05:52.625Z,2.70
2018-04-10T04:08:20.707Z,3.35
2018-04-10T04:10:48.906Z,3.00
2018-04-10T04:13:17.205Z,3.25
2018-04-10T04:15:45.498Z,2.92
2018-04-10T04:18:13.796Z,3.35
2018-04-10T04:20:42.090Z,3.92
2018-04-10T04:23:10.400Z,4.30
2018-04-10T04:25:38.697Z,4.50
2018-04-10T04:28:06.989Z,3.22
2018-04-10T04:30:35.040Z,3.35
2018-04-10T04:33:03.158Z,2.90
2018-04-10T04:35:31.362Z,3.10
2018-04-10T04:37:59.460Z,3.53
2018-04-10T04:40:27.639Z,3.20
2018-04-10T04:42:55.734Z,3.90
2018-04-10T04:45:23.934Z,3.92
2018-04-10T04:47:52.036Z,3.95
2018-04-10T04:50:20.932Z,4.12
2018-04-10T04:52:49.133Z,7.28
2018-04-10T04:55:17.224Z,5.95
2018-04-10T04:57:45.413Z,5.70
2018-04-10T05:00:13.513Z,5.62
2018-04-10T05:02:41.693Z,5.40
2018-04-10T05:05:09.793Z,18.73
2018-04-10T05:07:37.993Z,7.62
2018-04-10T05:10:06.088Z,3.55
2018-04-10T05:12:34.278Z,4.55
2018-04-10T05:15:02.208Z,5.60
2018-04-10T05:17:30.567Z,5.68
2018-04-10T05:19:58.767Z,4.60
2018-04-10T05:22:26.963Z,4.30
2018-04-10T05:24:55.047Z,5.15
2018-04-10T05:27:23.236Z,4.57
2018-04-10T05:29:51.445Z,5.10
2018-04-10T05:32:19.735Z,5.15
2018-04-10T05:34:47.929Z,4.43
2018-04-10T05:37:16.117Z,5.10
2018-04-10T05:39:44.315Z,8.30
2018-04-10T05:42:12.505Z,7.47
2018-04-10T05:44:40.606Z,9.90
2018-04-10T05:47:08.953Z,6.20
2018-04-10T05:49:37.098Z,6.00
2018-04-10T05:52:05.217Z,5.50
2018-04-10T05:54:33.377Z,5.32
2018-04-10T05:57:01.575Z,5.03
2018-04-10T05:59:29.501Z,4.53
2018-04-10T06:01:57.751Z,4.78
2018-04-10T06:04:25.780Z,4.87
2018-04-10T06:06:54.037Z,4.62
2018-04-10T06:09:22.130Z,4.20
2018-04-10T06:11:50.440Z,4.37
2018-04-10T06:14:18.827Z,4.25
2018-04-10T06:16:47.128Z,4.00
2018-04-10T06:19:15.521Z,4.12
2018-04-10T06:21:43.920Z,4.28
2018-04-10T06:24:12.322Z,3.65
2018-04-10T06:26:40.626Z,3.85
2018-04-10T06:29:08.820Z,4.00
2018-04-10T06:31:37.019Z,3.50
2018-04-10T06:34:05.091Z,3.97
2018-04-10T06:36:33.285Z,5.10
2018-04-10T06:39:01.386Z,4.05
2018-04-10T06:41:29.475Z,4.10
2018-04-10T06:43:57.665Z,5.50
2018-04-10T06:46:25.862Z,4.22
2018-04-10T06:48:54.068Z,3.92
2018-04-10T06:51:22.249Z,5.90
2018-04-10T06:53:50.544Z,5.32
2018-04-10T06:56:18.853Z,4.37
2018-04-10T06:58:47.153Z,5.00
2018-04-10T07:01:15.438Z,5.03
2018-04-10T07:03:43.750Z,4.30
2018-04-10T07:06:12.145Z,4.40
2018-04-10T07:08:40.430Z,4.07
2018-04-10T07:11:08.518Z,4.15
2018-04-10T07:13:36.720Z,4.40
2018-04-10T07:16:04.806Z,4.33
2018-04-10T07:18:33.011Z,4.80
2018-04-10T07:21:01.193Z,4.83
2018-04-10T07:23:29.262Z,4.40
2018-04-10T07:25:57.499Z,3.90
2018-04-10T07:28:25.682Z,4.37
2018-04-10T07:30:53.764Z,4.30
2018-04-10T07:33:22.066Z,3.27
2018-04-10T07:35:50.382Z,3.43
2018-04-10T07:38:18.572Z,3.30
2018-04-10T07:40:46.973Z,3.00
2018-04-10T07:43:15.261Z,2.60
2018-04-10T07:45:43.662Z,3.00
2018-04-10T07:48:11.858Z,4.13
2018-04-10T07:50:39.937Z,3.90
2018-04-10T07:53:08.138Z,4.83
2018-04-10T07:55:36.237Z,4.07
2018-04-10T07:58:04.419Z,3.40
2018-04-10T08:00:32.620Z,3.37
2018-04-10T08:03:00.803Z,2.77
2018-04-10T08:05:28.960Z,3.83
2018-04-10T08:07:57.199Z,3.17
2018-04-10T08:10:25.386Z,2.60
2018-04-10T08:12:53.588Z,2.63
2018-04-10T08:15:21.585Z,2.70
2018-04-10T08:17:49.779Z,2.20
2018-04-10T08:20:17.962Z,2.47
2018-04-10T08:22:46.162Z,2.25
2018-04-10T08:25:14.263Z,2.30
2018-04-10T08:27:42.440Z,2.62
2018-04-10T08:30:10.541Z,1.95
2018-04-10T08:32:38.744Z,2.30
2018-04-10T08:35:06.827Z,2.78
2018-04-10T08:37:35.018Z,2.95
2018-04-10T08:40:03.112Z,2.47
2018-04-10T08:42:31.320Z,2.20
2018-04-10T08:44:59.619Z,2.17
2018-04-10T08:47:27.795Z,1.75
2018-04-10T08:49:55.832Z,2.10
2018-04-10T08:52:24.125Z,2.20
2018-04-10T08:54:52.380Z,2.28
2018-04-10T08:57:20.576Z,2.47
2018-04-10T08:59:48.677Z,1.95
2018-04-10T09:02:16.976Z,2.10
2018-04-10T09:04:45.058Z,2.90
2018-04-10T09:07:14.280Z,3.05
2018-04-10T09:09:42.362Z,2.40
2018-04-10T09:12:10.758Z,2.37
2018-04-10T09:14:38.955Z,2.40
2018-04-10T09:17:07.048Z,3.15
2018-04-10T09:19:35.253Z,3.05
2018-04-10T09:22:03.346Z,2.80
2018-04-10T09:24:31.526Z,2.70
2018-04-10T09:26:59.634Z,2.75
2018-04-10T09:29:27.936Z,2.55
2018-04-10T09:31:56.180Z,2.33
2018-04-10T09:34:24.522Z,2.60
2018-04-10T09:36:52.801Z,3.15
2018-04-10T09:39:21.005Z,2.03
2018-04-10T09:41:49.403Z,1.92
2018-04-10T09:44:17.596Z,2.33
2018-04-10T09:46:45.806Z,2.50
2018-04-10T09:49:13.985Z,1.62
2018-04-10T09:51:42.080Z,1.90
2018-04-10T09:54:10.277Z,1.85
2018-04-10T09:56:38.362Z,1.50
2018-04-10T09:59:06.564Z,1.65
2018-04-10T10:01:34.748Z,1.50
2018-04-10T10:04:02.942Z,2.00
2018-04-10T10:06:31.038Z,1.40
2018-04-10T10:08:59.240Z,1.60
2018-04-10T10:11:27.643Z,1.73
2018-04-10T10:13:55.786Z,1.70
2018-04-10T10:16:23.822Z,1.65
2018-04-10T10:18:52.115Z,1.33
2018-04-10T10:21:20.213Z,1.60
2018-04-10T10:23:48.506Z,1.60
2018-04-10T10:26:16.806Z,1.48
2018-04-10T10:28:45.004Z,1.60
2018-04-10T10:31:13.085Z,1.83
2018-04-10T10:33:41.276Z,1.67
2018-04-10T10:36:09.379Z,1.60
2018-04-10T10:38:37.579Z,1.55
2018-04-10T10:41:05.656Z,1.55
2018-04-10T10:43:33.858Z,1.65
2018-04-10T10:46:02.156Z,1.92
2018-04-10T10:48:30.336Z,1.50
2018-04-10T10:50:58.436Z,1.23
2018-04-10T10:53:26.635Z,1.60
2018-04-10T10:55:54.716Z,1.45
2018-04-10T10:58:22.842Z,1.27
2018-04-10T11:00:50.761Z,1.50
2018-04-10T11:03:19.002Z,1.67
2018-04-10T11:05:47.290Z,1.80
2018-04-10T11:08:15.503Z,1.33
2018-04-10T11:10:43.584Z,1.20
2018-04-10T11:13:11.686Z,1.40
2018-04-10T11:15:39.972Z,1.25
2018-04-10T11:18:08.162Z,1.20
2018-04-10T11:20:36.266Z,1.50
2018-04-10T11:23:04.455Z,1.48
2018-04-10T11:25:32.650Z,1.62
2018-04-10T11:28:00.751Z,1.60
2018-04-10T11:30:28.931Z,1.67
2018-04-10T11:32:57.245Z,1.70
2018-04-10T11:35:25.528Z,1.48
2018-04-10T11:37:53.621Z,1.37
2018-04-10T11:40:21.911Z,1.35
2018-04-10T11:42:49.940Z,1.10
2018-04-10T11:45:18.104Z,1.42
2018-04-10T11:47:46.311Z,1.35
2018-04-10T11:50:14.401Z,1.10
2018-04-10T11:52:42.696Z,1.30
2018-04-10T11:55:10.886Z,1.40
2018-04-10T11:57:38.982Z,1.60
2018-04-10T12:00:07.069Z,1.00
2018-04-10T12:02:35.270Z,1.20
2018-04-10T12:05:03.360Z,1.27
2018-04-10T12:07:31.439Z,1.40
2018-04-10T12:09:59.639Z,1.20
2018-04-10T12:12:27.719Z,0.90
2018-04-10T12:14:55.928Z,1.27
2018-04-10T12:17:24.015Z,0.95
2018-04-10T12:19:52.115Z,0.80
2018-04-10T12:22:20.296Z,0.98
2018-04-10T12:24:48.406Z,1.05
2018-04-10T12:27:16.486Z,0.80
2018-04-10T12:29:44.588Z,1.10
2018-04-10T12:32:12.614Z,1.20
2018-04-10T12:34:40.766Z,1.00
2018-04-10T12:37:08.946Z,0.70
2018-04-10T12:39:37.143Z,0.70
2018-04-10T12:42:05.343Z,0.70
2018-04-10T12:44:33.444Z,0.90
2018-04-10T12:47:01.524Z,0.90
2018-04-10T12:49:29.824Z,0.75
2018-04-10T12:51:57.930Z,0.73
2018-04-10T12:54:26.216Z,0.88
2018-04-10T12:56:54.298Z,1.60
2018-04-10T12:59:22.509Z,0.62
2018-04-10T13:01:50.804Z,1.20
2018-04-10T13:04:18.986Z,0.60
2018-04-10T13:06:47.089Z,0.90
2018-04-10T13:09:15.282Z,1.10
2018-04-10T13:11:43.483Z,0.90
2018-04-10T13:14:11.517Z,1.02
2018-04-10T13:16:39.654Z,1.33
2018-04-10T13:19:07.860Z,0.90
2018-04-10T13:21:36.040Z,1.40
2018-04-10T13:24:04.146Z,1.10
2018-04-10T13:26:32.431Z,1.30
2018-04-10T13:29:00.731Z,1.60
2018-04-10T13:31:28.830Z,1.50
2018-04-10T13:33:57.118Z,1.27
2018-04-10T13:36:25.412Z,1.30
2018-04-10T13:38:53.601Z,1.40
2018-04-10T13:41:21.802Z,2.10
2018-04-10T13:43:49.893Z,1.90
2018-04-10T13:46:18.090Z,1.65
2018-04-10T13:48:46.379Z,1.70
2018-04-10T13:51:14.585Z,1.42
2018-04-10T13:53:42.876Z,1.48
2018-04-10T13:56:10.981Z,1.58
2018-04-10T13:58:39.069Z,2.28
2018-04-10T14:01:07.257Z,1.80
2018-04-10T14:03:35.457Z,2.20
2018-04-10T14:06:03.551Z,2.15
2018-04-10T14:08:31.739Z,2.03
2018-04-10T14:10:59.940Z,2.15
2018-04-10T14:13:28.132Z,1.77
2018-04-10T14:15:56.522Z,2.20
2018-04-10T14:18:24.832Z,1.95
2018-04-10T14:20:53.111Z,2.30
2018-04-10T14:23:21.723Z,2.40
2018-04-10T14:25:49.918Z,2.50
2018-04-10T14:28:18.121Z,2.40
2018-04-10T14:30:46.320Z,1.92
2018-04-10T14:33:14.512Z,2.33
2018-04-10T14:35:42.690Z,2.70
2018-04-10T14:38:10.895Z,2.90
2018-04-10T14:40:39.095Z,2.78
2018-04-10T14:43:07.386Z,3.60
2018-04-10T14:45:35.683Z,2.97
2018-04-10T14:48:03.980Z,2.40
2018-04-10T14:50:32.294Z,2.80
2018-04-10T14:53:00.661Z,3.00
2018-04-10T14:55:28.959Z,3.62
2018-04-10T14:57:57.262Z,2.95
2018-04-10T15:00:25.358Z,3.80
2018-04-10T15:02:53.454Z,2.70
2018-04-10T15:05:21.752Z,3.60
2018-04-10T15:07:49.839Z,2.67
2018-04-10T15:10:17.927Z,3.00
2018-04-10T15:12:46.113Z,3.53
2018-04-10T15:15:14.312Z,3.22
2018-04-10T15:17:42.413Z,3.35
2018-04-10T15:20:10.602Z,4.12
2018-04-10T15:22:38.627Z,3.85
2018-04-10T15:25:06.989Z,4.50
2018-04-10T15:27:35.091Z,4.50
2018-04-10T15:30:03.290Z,3.62
2018-04-10T15:32:31.368Z,3.37
2018-04-10T15:34:59.460Z,4.05
2018-04-10T15:37:27.659Z,3.70
2018-04-10T15:39:55.749Z,3.55
2018-04-10T15:42:23.844Z,3.87
2018-04-10T15:44:52.044Z,5.00
2018-04-10T15:47:20.224Z,3.83
2018-04-10T15:49:48.436Z,3.95
2018-04-10T15:52:16.612Z,3.33
2018-04-10T15:54:44.815Z,3.58
2018-04-10T15:57:12.908Z,4.40
2018-04-10T15:59:41.206Z,3.60
2018-04-10T16:02:09.488Z,4.30
2018-04-10T16:04:37.597Z,4.35
2018-04-10T16:07:05.738Z,3.85
2018-04-10T16:09:34.079Z,4.30
2018-04-10T16:12:02.393Z,4.10
2018-04-10T16:14:30.572Z,4.25
2018-04-10T16:16:58.879Z,3.40
2018-04-10T16:19:26.967Z,3.90
2018-04-10T16:21:55.160Z,3.42
2018-04-10T16:24:23.350Z,4.53
2018-04-10T16:26:51.548Z,4.40
2018-04-10T16:29:19.846Z,3.65
2018-04-10T16:31:48.030Z,3.90
2018-04-10T16:34:16.130Z,3.80
2018-04-10T16:36:44.328Z,4.25
2018-04-10T16:39:12.509Z,3.20
2018-04-10T16:41:40.764Z,3.40
2018-04-10T16:44:08.899Z,4.05
2018-04-10T16:46:37.099Z,3.28
2018-04-10T16:49:05.019Z,3.55
2018-04-10T16:51:33.180Z,3.90
2018-04-10T16:54:01.280Z,3.97
2018-04-10T16:56:29.459Z,3.55
2018-04-10T16:58:57.568Z,3.78
2018-04-10T17:01:25.759Z,2.90
2018-04-10T17:03:54.066Z,3.65
2018-04-10T17:06:22.248Z,3.20
2018-04-10T17:08:50.330Z,3.80
2018-04-10T17:11:18.435Z,2.83
2018-04-10T17:13:46.634Z,3.15
2018-04-10T17:16:14.717Z,3.30
2018-04-10T17:18:42.808Z,3.45
2018-04-10T17:21:11.117Z,3.30
2018-04-10T17:23:39.408Z,3.22
2018-04-10T17:26:07.492Z,3.65
2018-04-10T17:28:35.622Z,3.55
2018-04-10T17:31:03.884Z,3.50
2018-04-10T17:33:32.069Z,4.10
2018-04-10T17:36:00.178Z,4.78
2018-04-10T17:38:28.367Z,4.03
2018-04-10T17:40:56.559Z,3.30
2018-04-10T17:43:24.644Z,3.10
2018-04-10T17:45:52.844Z,3.20
2018-04-10T17:48:21.041Z,4.20
2018-04-10T17:50:49.251Z,3.47
2018-04-10T17:53:17.433Z,3.80
2018-04-10T17:55:46.433Z,3.10
2018-04-10T17:58:14.634Z,3.15
2018-04-10T18:00:42.734Z,3.58
2018-04-10T18:03:10.915Z,8.23
2018-04-10T18:05:40.649Z,7.80
2018-04-10T18:08:11.208Z,6.75
2018-04-10T18:10:39.374Z,8.25
2018-04-10T18:13:07.565Z,4.40
2018-04-10T18:15:35.614Z,3.33
2018-04-10T18:18:03.774Z,3.10
2018-04-10T18:20:32.763Z,2.70
2018-04-10T18:23:01.172Z,2.00
2018-04-10T18:25:29.369Z,1.67
2018-04-10T18:27:57.563Z,2.08
2018-04-10T18:30:25.662Z,2.35
2018-04-10T18:32:53.843Z,2.70
2018-04-10T18:35:22.071Z,2.45
2018-04-10T18:37:50.442Z,2.72
2018-04-10T18:40:18.530Z,3.15
2018-04-10T18:42:46.730Z,2.80
2018-04-10T18:45:14.823Z,2.30
2018-04-10T18:47:43.131Z,2.40
2018-04-10T18:50:11.125Z,1.80
2018-04-10T18:52:39.306Z,2.10
2018-04-10T18:55:07.503Z,1.90
2018-04-10T18:57:35.703Z,1.50
2018-04-10T19:00:03.901Z,1.77
2018-04-10T19:02:32.099Z,1.90
2018-04-10T19:05:00.497Z,1.48
2018-04-10T19:07:28.676Z,1.58
2018-04-10T19:09:56.865Z,1.55
2018-04-10T19:12:25.110Z,1.73
2018-04-10T19:14:53.165Z,1.15
2018-04-10T19:17:21.365Z,1.50
2018-04-10T19:19:49.449Z,1.37
2018-04-10T19:22:17.645Z,1.40
2018-04-10T19:24:45.724Z,2.08
2018-04-10T19:27:14.025Z,2.15
2018-04-10T19:29:42.226Z,2.47
2018-04-10T19:32:10.424Z,2.22
2018-04-10T19:34:38.723Z,2.30
2018-04-10T19:37:06.918Z,2.37
2018-04-10T19:39:34.992Z,1.77
2018-04-10T19:42:03.073Z,1.83
2018-04-10T19:44:31.284Z,1.90
2018-04-10T19:46:59.477Z,2.58
2018-04-10T19:49:27.690Z,2.85
2018-04-10T19:51:55.862Z,2.67
2018-04-10T19:54:24.056Z,2.87
2018-04-10T19:56:52.158Z,2.80
2018-04-10T19:59:20.376Z,2.25
2018-04-10T20:01:48.641Z,2.45
2018-04-10T20:04:16.940Z,2.50
2018-04-10T20:06:45.037Z,2.20
2018-04-10T20:09:13.138Z,2.00
2018-04-10T20:11:42.556Z,1.80
2018-04-10T20:14:10.858Z,2.00
2018-04-10T20:16:39.053Z,1.60
2018-04-10T20:19:07.344Z,1.70
2018-04-10T20:21:35.427Z,1.77
2018-04-10T20:24:03.619Z,1.58
2018-04-10T20:26:31.710Z,1.60
2018-04-10T20:29:00.013Z,1.75
2018-04-10T20:31:28.112Z,1.85
2018-04-10T20:33:56.202Z,1.30
2018-04-10T20:36:24.299Z,1.30
2018-04-10T20:38:52.482Z,1.67
2018-04-10T20:41:20.680Z,3.33
2018-04-10T20:43:48.777Z,3.25
2018-04-10T20:46:17.162Z,3.20
2018-04-10T20:48:45.469Z,3.65
2018-04-10T20:51:13.763Z,4.25
2018-04-10T20:53:41.861Z,3.80
2018-04-10T20:56:10.041Z,3.97
2018-04-10T20:58:38.150Z,3.35
2018-04-10T21:01:06.238Z,2.97
2018-04-10T21:03:34.417Z,3.20
2018-04-10T21:06:02.618Z,3.67
2018-04-10T21:08:30.732Z,4.20
2018-04-10T21:10:59.021Z,3.55
2018-04-10T21:13:27.104Z,3.37
2018-04-10T21:15:55.809Z,3.22
2018-04-10T21:18:24.527Z,3.17
2018-04-10T21:20:52.717Z,3.15
2018-04-10T21:23:20.902Z,4.10
2018-04-10T21:25:49.204Z,2.70
2018-04-10T21:28:17.287Z,3.22
2018-04-10T21:30:45.482Z,2.70
2018-04-10T21:33:13.682Z,2.40
2018-04-10T21:35:41.771Z,2.15
2018-04-10T21:38:10.075Z,2.47
2018-04-10T21:40:38.265Z,1.60
2018-04-10T21:43:06.459Z,2.00
2018-04-10T21:45:34.656Z,2.35
2018-04-10T21:48:02.751Z,2.62
2018-04-10T21:50:31.868Z,3.22
2018-04-10T21:53:00.071Z,3.47
2018-04-10T21:55:28.289Z,3.45
2018-04-10T21:57:56.642Z,2.90
2018-04-10T22:00:24.662Z,3.40
2018-04-10T22:02:52.832Z,3.20
2018-04-10T22:05:20.931Z,4.03
2018-04-10T22:07:49.214Z,4.18
2018-04-10T22:10:17.521Z,3.87
2018-04-10T22:12:45.912Z,3.50
2018-04-10T22:15:14.318Z,3.12
2018-04-10T22:17:42.704Z,3.67
2018-04-10T22:20:10.919Z,3.05
2018-04-10T22:22:39.210Z,3.87
2018-04-10T22:25:07.546Z,2.90
2018-04-10T22:27:36.421Z,2.90
2018-04-10T22:30:04.609Z,2.67
2018-04-10T22:32:32.774Z,3.12
2018-04-10T22:35:00.958Z,3.05
2018-04-10T22:37:29.148Z,2.35
2018-04-10T22:39:57.346Z,2.95
2018-04-10T22:42:25.440Z,2.58
2018-04-10T22:44:53.630Z,2.83
2018-04-10T22:47:21.729Z,2.42
2018-04-10T22:49:50.127Z,2.87
2018-04-10T22:52:18.432Z,3.03
2018-04-10T22:54:46.714Z,2.67
2018-04-10T22:57:15.031Z,2.58
2018-04-10T22:59:43.329Z,2.62
2018-04-10T23:02:11.378Z,2.95
2018-04-10T23:04:39.614Z,2.87
2018-04-10T23:07:07.816Z,2.40
2018-04-10T23:09:36.001Z,2.55
2018-04-10T23:12:04.211Z,2.37
2018-04-10T23:14:32.308Z,2.70
2018-04-10T23:17:00.407Z,2.53
2018-04-10T23:19:28.695Z,3.45
2018-04-10T23:21:56.901Z,2.85
2018-04-10T23:24:25.089Z,2.55
2018-04-10T23:26:53.291Z,3.05
2018-04-10T23:29:21.589Z,2.80
2018-04-10T23:31:49.884Z,2.90
2018-04-10T23:34:18.170Z,2.50
2018-04-10T23:36:46.469Z,2.20
2018-04-10T23:39:14.768Z,2.70
2018-04-10T23:41:42.972Z,2.45
2018-04-10T23:44:11.032Z,2.10
2018-04-10T23:46:39.057Z,2.42
2018-04-10T23:49:07.242Z,1.80
2018-04-10T23:51:35.433Z,1.60
2018-04-10T23:54:03.631Z,1.95
2018-04-10T23:56:31.733Z,2.00
2018-04-10T23:58:59.931Z,1.50
